Latest Weather Observations for Gudgenby

IDN60901

Issued at 12:51 pm EST Tuesday 7 July 2020 (issued every 10 minutes, with the page automatically refreshed every 10 minutes)

About weather observations | Map of Canberra area stations | Latest observations for Canberra area | Other Formats
Station Details ID: 250072 Name: GUDGENBY (PCS) Lat: -35.73 Lon: 148.98 Height: 1035.0 m

Portable automatic weather stations (PAWS) are operated by other organisations, such as Fire and Emergency Services, and are included here by agreement. Portable stations may be deployed to a location for a short period and their location may be subject to change without notice. Wind observations from these stations are provided from heights of either three (3) or ten (10) metres above ground level (AGL).

Data from the previous 72 hours. | See also: Recent months for locations in Aust Capital Territory
Date/Time
EST
Temp
°C
App
Temp
°C
Dew
Point
°C
Rel
Hum
%
Delta-T
°C
Wind Press
QNH
hPa
Press
MSL
hPa
Rain since
9am
mm
Dir  Spd
km/h
Gust
km/h
Spd
kts
Gust
kts
07/12:40pm 7.8 2.4 2.2 68 2.5 S 20 22 11 12 - - 0.0
07/12:30pm 7.6 1.8 2.1 68 2.4 S 22 24 12 13 - - 0.0
07/12:20pm 7.4 2.2 2.6 71 2.1 S 19 20 10 11 - - 0.0
07/12:10pm 6.7 1.3 2.2 73 2.0 S 20 24 11 13 - - 0.0
07/12:00pm 6.4 1.0 2.5 76 1.7 S 20 26 11 14 - - 0.0
07/11:50am 6.4 0.2 2.4 75 1.8 S 24 28 13 15 - - 0.0
07/11:40am 5.6 -1.0 2.2 79 1.5 S 26 30 14 16 - - 0.0
07/11:30am 5.6 -0.6 2.0 77 1.6 SSE 24 28 13 15 - - 0.0
07/11:20am 5.7 -0.1 2.2 78 1.5 S 22 26 12 14 - - 0.0
07/11:10am 5.5 -0.3 2.1 79 1.5 S 22 28 12 15 - - 0.0
07/11:00am 5.4 -0.8 2.1 79 1.4 S 24 26 13 14 - - 0.0
07/10:50am 5.1 -1.5 2.0 80 1.3 S 26 30 14 16 - - 0.0
07/10:40am 5.0 -2.4 1.9 80 1.3 SSE 30 33 16 18 - - 0.0
07/10:30am 4.8 -3.0 1.8 81 1.3 SSE 32 33 17 18 - - 0.0
07/10:20am 4.6 -3.4 1.5 80 1.3 SSE 33 35 18 19 - - 0.0
07/10:10am 4.7 -3.1 1.6 80 1.3 S 32 35 17 19 - - 0.0
07/10:00am 5.5 -1.5 2.0 78 1.5 S 28 33 15 18 - - 0.0
07/09:50am 5.4 -1.6 2.0 79 1.5 SSE 28 33 15 18 - - 0.0
07/09:40am 5.2 -1.8 2.1 80 1.3 SSE 28 30 15 16 - - 0.0
07/09:30am 4.9 -2.5 1.8 80 1.3 SSE 30 32 16 17 - - 0.0
07/09:20am 4.7 -3.1 1.9 82 1.2 SSE 32 35 17 19 - - 0.0
07/09:10am 4.5 -3.3 1.6 81 1.2 SSE 32 35 17 19 - - 0.0
07/09:00am 4.4 -2.6 1.7 83 1.1 SSE 28 30 15 16 - - 0.0
07/08:50am 3.9 -3.2 1.5 84 1.0 SSE 28 32 15 17 - - 0.0
07/08:40am 3.6 -3.9 1.4 85 0.9 SSE 30 33 16 18 - - 0.0
07/08:30am 3.5 -4.0 1.5 87 0.8 SSE 30 35 16 19 - - 0.0
07/08:20am 3.4 -4.1 1.4 87 0.8 SSE 30 37 16 20 - - 0.0
07/08:10am 3.0 -2.6 1.0 87 0.8 SSE 20 30 11 16 - - 0.0
07/08:00am 3.1 -2.4 0.7 84 1.0 SSE 19 26 10 14 - - 0.0
07/07:50am 3.5 -2.9 1.2 85 1.0 SSE 24 28 13 15 - - 0.0
07/07:40am 3.5 -2.1 1.3 85 0.9 SSE 20 24 11 13 - - 0.0
07/07:30am 3.4 -3.0 1.2 85 0.9 SSE 24 28 13 15 - - 0.0
07/07:20am 3.3 -3.0 1.3 87 0.8 SSE 24 26 13 14 - - 0.0
07/07:10am 3.4 -3.3 1.2 85 0.9 SSE 26 32 14 17 - - 0.0
07/07:00am 3.5 -2.8 1.5 87 0.8 SSE 24 30 13 16 - - 0.0
07/06:50am 3.6 -2.0 1.3 85 1.0 S 20 28 11 15 - - 0.0
07/06:40am 3.5 -2.1 1.3 85 0.9 S 20 22 11 12 - - 0.0
07/06:30am 3.6 -2.0 1.3 85 1.0 S 20 26 11 14 - - 0.0
07/06:20am 3.6 -2.3 1.4 85 0.9 S 22 28 12 15 - - 0.0
07/06:10am 3.7 -2.2 1.4 85 1.0 S 22 26 12 14 - - 0.0
07/06:00am 3.7 -2.3 1.3 84 1.0 S 22 26 12 14 - - 0.0
07/05:50am 3.6 -2.4 1.2 84 1.0 S 22 28 12 15 - - 0.0
07/05:40am 3.5 -1.9 1.1 84 1.0 S 19 20 10 11 - - 0.0
07/05:30am 3.5 -2.1 1.1 84 1.0 S 20 26 11 14 - - 0.0
07/05:20am 3.5 -2.1 1.1 84 1.0 S 20 24 11 13 - - 0.0
07/05:10am 3.5 -1.9 1.2 85 1.0 S 19 22 10 12 - - 0.0
07/05:00am 3.5 -1.6 1.0 84 1.0 S 17 19 9 10 - - 0.0
07/04:50am 3.3 -1.4 1.1 85 0.9 SSE 15 17 8 9 - - 0.0
07/04:40am 3.3 -2.3 1.1 85 0.9 S 20 26 11 14 - - 0.0
07/04:30am 3.0 -2.1 0.9 86 0.9 S 17 19 9 10 - - 0.0
07/04:20am 3.2 -2.8 0.9 85 0.9 S 22 26 12 14 - - 0.0
07/04:10am 3.1 -4.9 0.7 84 1.0 S 32 33 17 18 - - 0.0
07/04:00am 2.8 -5.2 0.5 85 0.9 SSE 32 35 17 19 - - 0.0
07/03:50am 2.8 -5.2 0.5 85 0.9 SSE 32 35 17 19 - - 0.0
07/03:40am 2.5 -4.8 0.2 85 0.9 SSE 28 30 15 16 - - 0.0
07/03:30am 1.9 -3.9 -0.2 86 0.8 S 20 24 11 13 - - 0.0
07/03:20am 1.8 -5.2 -0.6 84 0.9 SSE 26 30 14 16 - - 0.0
07/03:10am 1.1 -4.6 -1.0 86 0.8 SSE 19 30 10 16 - - 0.0
07/03:00am 1.1 -2.4 -1.0 86 0.8 SSE 7 11 4 6 - - 0.0
07/02:50am 0.9 -2.4 -0.9 88 0.7 SE 6 9 3 5 - - 0.0
07/02:40am 0.8 -2.4 -0.6 90 0.5 E 6 9 3 5 - - 0.0
07/02:30am 0.6 -1.9 -0.9 90 0.6 NNW 2 6 1 3 - - 0.0
07/02:20am 1.1 -1.7 -0.4 90 0.6 NW 4 6 2 3 - - 0.0
07/02:10am 1.1 -1.7 -0.4 90 0.6 NW 4 6 2 3 - - 0.0
07/02:00am 0.8 -2.0 -0.4 92 0.5 WNW 4 4 2 2 - - 0.0
07/01:50am 0.8 -2.1 -0.9 88 0.6 W 4 6 2 3 - - 0.0
07/01:40am 1.4 -1.4 -0.3 88 0.7 SSW 4 4 2 2 - - 0.0
07/01:30am 1.0 -1.8 -0.4 90 0.5 SSW 4 4 2 2 - - 0.0
07/01:20am 0.6 -1.9 -0.9 90 0.6 S 2 4 1 2 - - 0.0
07/01:10am 1.5 -1.7 -0.2 88 0.7 WNW 6 7 3 4 - - 0.0
07/01:00am 1.5 -1.7 -0.2 88 0.7 WNW 6 6 3 3 - - 0.0
07/12:50am 1.1 -2.1 -0.2 91 0.5 NW 6 6 3 3 - - 0.0
07/12:40am 0.7 -2.1 -0.6 91 0.5 N 4 4 2 2 - - 0.0
07/12:30am 1.2 -1.6 -0.2 90 0.5 NW 4 4 2 2 - - 0.0
07/12:20am 1.0 -2.2 -0.4 90 0.5 NW 6 6 3 3 - - 0.0
07/12:10am 0.9 -2.3 -0.5 90 0.5 NNW 6 7 3 4 - - 0.0
07/12:00am 1.6 -1.2 -0.2 88 0.7 N 4 6 2 3 - - 0.0
 
Date/Time
EST
Temp
°C
App
Temp
°C
Dew
Point
°C
Rel
Hum
%
Delta-T
°C
Wind Press
QNH
hPa
Press
MSL
hPa
Rain since
9am
mm
Dir  Spd
km/h
Gust
km/h
Spd
kts
Gust
kts
06/11:50pm 1.6 -1.1 0.1 90 0.6 NW 4 4 2 2 - - 0.0
06/11:40pm 1.5 -1.3 -0.2 88 0.7 NNE 4 4 2 2 - - 0.0
06/11:30pm 1.4 -1.0 -0.1 90 0.6 N 2 4 1 2 - - 0.0
06/11:20pm 1.4 -1.0 -0.1 90 0.6 SSW 2 2 1 1 - - 0.0
06/11:10pm 1.7 -0.7 -0.2 87 0.7 E 2 4 1 2 - - 0.0
06/11:00pm 2.2 -0.5 0.1 86 0.8 S 4 6 2 3 - - 0.0
06/10:50pm 2.6 -0.5 0.3 85 0.9 S 6 7 3 4 - - 0.0
06/10:40pm 2.7 -0.6 0.2 83 1.0 S 7 11 4 6 - - 0.0
06/10:30pm 2.7 -0.9 0.3 84 1.0 S 9 9 5 5 - - 0.0
06/10:20pm 2.7 -0.9 0.3 84 1.0 S 9 11 5 6 - - 0.0
06/10:10pm 2.6 -1.4 0.3 85 0.9 S 11 15 6 8 - - 0.0
06/10:00pm 2.6 -1.8 0.3 85 0.9 S 13 15 7 8 - - 0.0
06/09:50pm 2.6 -1.4 0.3 85 0.9 S 11 13 6 7 - - 0.0
06/09:40pm 2.4 -1.3 0.2 85 0.9 SSE 9 11 5 6 - - 0.0
06/09:30pm 2.6 -0.7 0.2 84 1.0 SSE 7 9 4 5 - - 0.0
06/09:20pm 2.6 -1.1 0.2 84 1.0 SSE 9 11 5 6 - - 0.0
06/09:10pm 2.8 -1.2 0.3 84 1.0 S 11 15 6 8 - - 0.0
06/09:00pm 2.7 -2.1 0.4 85 0.9 SSE 15 19 8 10 - - 0.0
06/08:50pm 2.8 -2.4 0.2 83 1.0 SSE 17 19 9 10 - - 0.0
06/08:40pm 3.1 -1.7 0.3 82 1.1 S 15 17 8 9 - - 0.0
06/08:30pm 3.0 -1.8 0.2 82 1.1 S 15 17 8 9 - - 0.0
06/08:20pm 3.1 -2.1 0.1 81 1.2 S 17 19 9 10 - - 0.0
06/08:10pm 3.4 -1.8 0.2 79 1.3 S 17 19 9 10 - - 0.0
06/08:00pm 3.4 -1.0 0.1 79 1.3 S 13 17 7 9 - - 0.0
06/07:50pm 3.6 0.3 0.2 78 1.4 S 7 11 4 6 - - 0.0
06/07:40pm 4.4 1.3 0.4 75 1.6 S 6 7 3 4 - - 0.0
06/07:30pm 4.7 1.6 0.3 73 1.8 SSE 6 6 3 3 - - 0.0
06/07:20pm 4.7 1.4 0.4 74 1.8 SSE 7 9 4 5 - - 0.0
06/07:10pm 4.9 1.3 0.3 72 1.9 SSE 9 9 5 5 - - 0.0
06/07:00pm 4.9 1.3 0.3 72 1.9 SSE 9 11 5 6 - - 0.0
06/06:50pm 4.7 0.6 0.1 72 1.9 SSE 11 13 6 7 - - 0.0
06/06:40pm 5.0 0.6 0.3 71 1.9 SSE 13 15 7 8 - - 0.0
06/06:30pm 5.2 0.4 0.4 71 2.0 SSE 15 15 8 8 - - 0.0
06/06:20pm 5.5 1.1 0.5 70 2.1 S 13 15 7 8 - - 0.0
06/06:10pm 5.8 1.5 0.7 70 2.1 S 13 17 7 9 - - 0.0
06/06:00pm 6.5 2.9 0.9 67 2.4 S 9 11 5 6 - - 0.0
06/05:50pm 6.2 3.0 0.9 69 2.2 SSW 7 13 4 7 - - 0.0
06/05:40pm 6.4 3.4 0.5 66 2.5 E 6 7 3 4 - - 0.0
06/05:30pm 6.4 3.2 1.0 68 2.3 ESE 7 11 4 6 - - 0.0
06/05:20pm 6.9 3.0 1.0 66 2.5 NE 11 13 6 7 - - 0.0
06/05:10pm 7.1 3.6 1.2 66 2.5 NE 9 11 5 6 - - 0.0
06/05:00pm 7.3 3.4 1.2 65 2.6 NE 11 13 6 7 - - 0.0
06/04:50pm 7.4 3.1 1.2 65 2.7 NE 13 13 7 7 - - 0.0
06/04:40pm 7.7 3.9 1.5 65 2.7 NE 11 13 6 7 - - 0.0
06/04:30pm 8.2 4.0 1.9 64 2.8 NE 13 13 7 7 - - 0.0
06/04:20pm 9.2 5.5 2.2 61 3.1 NE 11 11 6 6 - - 0.0
06/04:10pm 9.7 5.9 2.0 58 3.4 NE 11 15 6 8 - - 0.0
06/04:00pm 10.1 6.4 2.5 59 3.5 NE 11 11 6 6 - - 0.0
06/03:50pm 10.2 6.5 2.4 58 3.5 NE 11 15 6 8 - - 0.0
06/03:40pm 10.4 6.3 2.4 57 3.6 NE 13 15 7 8 - - 0.0
06/03:30pm 10.6 6.5 2.5 57 3.7 NE 13 15 7 8 - - 0.0
06/03:20pm 10.6 6.5 2.1 55 3.8 NE 13 15 7 8 - - 0.0
06/03:10pm 10.9 6.8 2.1 54 4.0 NE 13 15 7 8 - - 0.0
06/03:00pm 11.1 6.7 2.6 56 3.9 NE 15 17 8 9 - - 0.0
06/02:50pm 11.3 7.6 2.5 54 4.0 NE 11 17 6 9 - - 0.0
06/02:40pm 11.6 8.0 2.8 54 4.1 NE 11 13 6 7 - - 0.0
06/02:30pm 11.6 7.9 2.5 53 4.2 NE 11 15 6 8 - - 0.0
06/02:20pm 11.8 7.8 2.6 53 4.2 NE 13 15 7 8 - - 0.0
06/02:10pm 12.1 8.4 2.6 52 4.4 NNE 11 13 6 7 - - 0.0
06/02:00pm 12.0 8.7 2.2 51 4.5 NE 9 11 5 6 - - 0.0
06/01:50pm 12.0 8.4 0.7 46 5.0 ENE 9 11 5 6 - - 0.0
06/01:40pm 12.2 9.2 1.9 49 4.7 NE 7 13 4 7 - - 0.0
06/01:30pm 12.1 9.1 1.1 47 4.9 N 6 7 3 4 - - 0.0
06/01:20pm 11.5 7.8 2.2 53 4.2 NE 11 15 6 8 - - 0.0
06/01:10pm 11.7 8.3 2.1 51 4.4 ENE 9 13 5 7 - - 0.0
06/01:00pm 11.8 8.0 2.0 51 4.5 NE 11 13 6 7 - - 0.0
06/12:50pm 12.6 9.9 2.7 51 4.6 ENE 6 11 3 6 - - 0.0
06/12:40pm 12.6 9.8 -0.2 41 5.6 NNE 4 6 2 3 - - 0.0
06/12:30pm 11.8 9.4 2.0 51 4.5 N 4 7 2 4 - - 0.0
06/12:20pm 11.7 9.3 2.1 51 4.4 NNW 4 6 2 3 - - 0.0
06/12:10pm 11.5 9.2 2.6 54 4.1 NW 4 6 2 3 - - 0.0
06/12:00pm 11.0 8.6 2.3 55 4.0 ENE 4 7 2 4 - - 0.0
06/11:50am 10.7 8.4 2.8 58 3.6 NNE 4 6 2 3 - - 0.0
06/11:40am 10.9 8.6 2.6 56 3.8 N 4 6 2 3 - - 0.0
06/11:30am 10.3 8.3 2.1 57 3.7 ENE 2 4 1 2 - - 0.0
06/11:20am 9.5 6.8 2.4 61 3.2 NW 6 7 3 4 - - 0.0
06/11:10am 9.4 6.9 1.8 59 3.4 W 4 7 2 4 - - 0.0
06/11:00am 8.5 5.8 2.4 65 2.7 SSE 6 9 3 5 - - 0.0
06/10:50am 8.3 5.5 2.1 65 2.7 SE 6 7 3 4 - - 0.0
06/10:40am 8.0 5.2 2.9 70 2.3 SE 7 9 4 5 - - 0.0
06/10:30am 7.7 4.7 2.3 68 2.4 SE 7 11 4 6 - - 0.0
06/10:20am 7.6 4.8 2.3 69 2.3 SE 6 11 3 6 - - 0.0
06/10:10am 7.4 4.7 2.4 70 2.2 SSE 6 9 3 5 - - 0.0
06/10:00am 7.1 4.3 2.3 71 2.1 S 6 9 3 5 - - 0.0
06/09:50am 7.5 5.2 2.7 71 2.1 S 4 6 2 3 - - 0.0
06/09:40am 6.7 4.4 2.8 76 1.7 W 4 6 2 3 - - 0.0
06/09:30am 5.9 3.5 2.2 77 1.6 WNW 4 6 2 3 - - 0.0
06/09:20am 5.4 2.9 1.8 77 1.5 WNW 4 6 2 3 - - 0.0
06/09:10am 4.7 2.2 1.3 78 1.4 WNW 4 6 2 3 - - 0.0
06/09:00am 4.1 1.2 1.3 82 1.2 NW 6 7 3 4 - - 0.0
06/08:50am 3.5 0.9 0.8 82 1.1 NW 4 6 2 3 - - 0.0
06/08:40am 3.0 0.3 0.5 84 1.0 WNW 4 6 2 3 - - 0.0
06/08:30am 2.2 -0.5 0.3 87 0.8 W 4 6 2 3 - - 0.0
06/08:20am 1.1 -2.1 -0.5 89 0.6 W 6 7 3 4 - - 0.0
06/08:10am 0.8 -2.5 -1.1 87 0.7 W 6 7 3 4 - - 0.0
06/08:00am 0.7 -2.5 -0.8 90 0.6 SSE 6 7 3 4 - - 0.0
06/07:50am 0.9 -1.9 -0.6 90 0.6 S 4 4 2 2 - - 0.0
06/07:40am 0.6 -1.8 -0.5 92 0.4 SSW 2 4 1 2 - - 0.0
06/07:30am 0.1 -3.1 -0.8 94 0.3 S 6 6 3 3 - - 0.0
06/07:20am -0.2 -2.7 -0.8 96 0.2 ESE 2 4 1 2 - - 0.0
06/07:10am -0.7 -4.0 -1.3 96 0.2 SSE 6 7 3 4 - - 0.0
06/07:00am -0.7 -3.7 -1.6 94 0.3 SE 4 7 2 4 - - 0.0
06/06:50am 0.4 -2.1 -0.9 91 0.5 NE 2 4 1 2 - - 0.0
06/06:40am 0.7 -1.7 -0.3 93 0.4 W 2 4 1 2 - - 0.0
06/06:30am 0.7 -1.7 -0.4 92 0.4 WSW 2 4 1 2 - - 0.0
06/06:20am 0.7 -1.7 -0.4 92 0.4 SW 2 2 1 1 - - 0.0
06/06:10am 0.8 -2.0 -0.2 93 0.4 NNW 4 6 2 3 - - 0.0
06/06:00am 0.5 -1.9 -0.2 95 0.3 NW 2 4 1 2 - - 0.0
06/05:50am 0.3 -2.1 -0.3 96 0.2 N 2 4 1 2 - - 0.0
06/05:40am -0.2 -3.1 -1.4 92 0.4 NNE 4 4 2 2 - - 0.0
06/05:30am 0.6 -1.8 -0.1 95 0.3 SSW 2 4 1 2 - - 0.0
06/05:20am 0.2 -2.2 -0.6 94 0.3 ENE 2 4 1 2 - - 0.0
06/05:10am -0.1 -2.6 -0.9 94 0.3 SSW 2 4 1 2 - - 0.0
06/05:00am -0.1 -3.4 -1.1 93 0.4 S 6 7 3 4 - - 0.0
06/04:50am 0.2 -3.1 -1.1 91 0.5 SSW 6 7 3 4 - - 0.0
06/04:40am 1.1 -2.1 -0.3 90 0.5 SSW 6 7 3 4 - - 0.0
06/04:30am 1.2 -1.2 0.0 92 0.5 SSW 2 4 1 2 - - 0.0
06/04:20am 1.3 -1.8 0.0 91 0.5 WNW 6 7 3 4 - - 0.0
06/04:10am 1.4 -1.7 0.0 90 0.5 NW 6 6 3 3 - - 0.0
06/04:00am 1.4 -1.7 0.1 91 0.5 NW 6 7 3 4 - - 0.0
06/03:50am 1.2 -2.1 -0.1 91 0.5 NW 7 7 4 4 - - 0.0
06/03:40am 1.2 -2.1 0.0 92 0.5 NW 7 7 4 4 - - 0.0
06/03:30am 1.1 -2.1 -0.3 90 0.5 NW 6 6 3 3 - - 0.0
06/03:20am 1.4 -1.3 0.1 91 0.5 WNW 4 4 2 2 - - 0.0
06/03:10am 1.4 -1.8 -0.6 86 0.8 SSW 6 7 3 4 - - 0.0
06/03:00am 1.7 -2.0 -0.3 86 0.8 S 9 9 5 5 - - 0.0
06/02:50am 2.0 -1.1 0.0 87 0.8 S 6 9 3 5 - - 0.0
06/02:40am 1.7 -0.6 0.1 89 0.6 ENE 2 4 1 2 - - 0.0
06/02:30am 2.5 -0.3 -0.1 83 1.0 SSW 4 4 2 2 - - 0.0
06/02:20am 2.4 -0.3 0.3 86 0.8 SW 4 6 2 3 - - 0.0
06/02:10am 2.2 -0.5 0.1 86 0.8 SSE 4 6 2 3 - - 0.0
06/02:00am 2.2 -0.5 0.3 87 0.8 NE 4 6 2 3 - - 0.0
06/01:50am 2.0 -1.1 0.2 88 0.7 NNW 6 7 3 4 - - 0.0
06/01:40am 1.6 -1.8 -0.3 87 0.7 NNW 7 9 4 5 - - 0.0
06/01:30am 1.6 -1.5 0.1 90 0.6 NNW 6 7 3 4 - - 0.0
06/01:20am 1.7 -1.5 -0.4 86 0.8 N 6 6 3 3 - - 0.0
06/01:10am 1.8 -0.9 0.1 88 0.7 NW 4 4 2 2 - - 0.0
06/01:00am 1.8 -0.5 0.3 90 0.6 NNW 2 4 1 2 - - 0.0
06/12:50am 1.6 -1.6 -0.4 86 0.8 ENE 6 9 3 5 - - 0.0
06/12:40am 2.2 -0.9 0.1 86 0.8 ENE 6 11 3 6 - - 0.0
06/12:30am 1.9 -1.2 0.3 89 0.6 NNW 6 7 3 4 - - 0.0
06/12:20am 1.7 -1.5 -0.2 87 0.7 NW 6 6 3 3 - - 0.0
06/12:10am 1.9 -1.3 -0.2 86 0.8 N 6 7 3 4 - - 0.0
06/12:00am 2.6 -0.1 0.4 85 0.9 SSW 4 6 2 3 - - 0.0
 
Date/Time
EST
Temp
°C
App
Temp
°C
Dew
Point
°C
Rel
Hum
%
Delta-T
°C
Wind Press
QNH
hPa
Press
MSL
hPa
Rain since
9am
mm
Dir  Spd
km/h
Gust
km/h
Spd
kts
Gust
kts
05/11:50pm 2.7 0.4 0.3 84 1.0 S 2 4 1 2 - - 0.0
05/11:40pm 2.7 0.0 0.5 85 0.9 ESE 4 4 2 2 - - 0.0
05/11:30pm 2.6 -0.1 0.2 84 1.0 WSW 4 7 2 4 - - 0.0
05/11:20pm 3.5 0.9 0.7 82 1.1 SSW 4 7 2 4 - - 0.0
05/11:10pm 3.5 0.9 0.7 82 1.1 E 4 4 2 2 - - 0.0
05/11:00pm 3.4 1.2 0.9 84 1.0 W 2 4 1 2 - - 0.0
05/10:50pm 3.2 1.0 0.9 85 0.9 NW 2 4 1 2 - - 0.0
05/10:40pm 2.7 0.1 0.7 87 0.8 N 4 6 2 3 - - 0.0
05/10:30pm 3.2 0.1 0.4 82 1.1 NW 6 7 3 4 - - 0.0
05/10:20pm 3.2 0.2 0.8 84 1.0 WNW 6 7 3 4 - - 0.0
05/10:10pm 3.2 0.6 0.8 84 1.0 NNW 4 6 2 3 - - 0.0
05/10:00pm 3.1 0.5 0.8 85 0.9 NE 4 6 2 3 - - 0.0
05/09:50pm 3.6 0.4 0.8 82 1.1 S 7 9 4 5 - - 0.0
05/09:40pm 4.0 0.5 1.0 81 1.2 SSW 9 11 5 6 - - 0.0
05/09:30pm 3.8 0.6 0.9 81 1.2 S 7 9 4 5 - - 0.0
05/09:20pm 4.0 0.5 1.0 81 1.2 S 9 13 5 7 - - 0.0
05/09:10pm 4.3 0.8 1.1 80 1.3 SSE 9 9 5 5 - - 0.0
05/09:00pm 4.6 1.1 1.2 78 1.4 S 9 11 5 6 - - 0.0
05/08:50pm 4.9 1.0 1.2 77 1.6 S 11 13 6 7 - - 0.0
05/08:40pm 5.1 1.6 1.1 75 1.7 S 9 11 5 6 - - 0.0
05/08:30pm 5.2 1.3 1.1 75 1.7 S 11 13 6 7 - - 0.0
05/08:20pm 5.8 2.3 1.2 72 1.9 S 9 11 5 6 - - 0.0
05/08:10pm 5.9 3.0 1.2 72 2.0 SSE 6 7 3 4 - - 0.0
05/08:00pm 5.5 2.9 1.2 74 1.8 SSE 4 6 2 3 - - 0.0
05/07:50pm 5.5 2.9 1.0 73 1.9 ENE 4 6 2 3 - - 0.0
05/07:40pm 5.6 2.4 0.9 72 2.0 ESE 7 9 4 5 - - 0.0
05/07:30pm 5.6 3.0 1.0 72 1.9 SE 4 6 2 3 - - 0.0
05/07:20pm 5.6 3.0 0.8 71 2.0 S 4 6 2 3 - - 0.0
05/07:10pm 5.9 2.7 0.8 70 2.1 S 7 11 4 6 - - 0.0
05/07:00pm 6.1 3.1 0.7 68 2.3 S 6 7 3 4 - - 0.0
05/06:50pm 6.3 2.7 0.6 67 2.4 S 9 13 5 7 - - 0.0
05/06:40pm 6.6 2.2 0.4 64 2.6 S 13 15 7 8 - - 0.0
05/06:30pm 6.6 1.8 0.4 64 2.6 S 15 17 8 9 - - 0.0
05/06:20pm 6.6 1.8 0.5 65 2.6 S 15 17 8 9 - - 0.0
05/06:10pm 6.9 2.5 0.5 64 2.7 S 13 15 7 8 - - 0.0
05/06:00pm 7.4 3.4 0.4 61 3.0 S 11 13 6 7 - - 0.0
05/05:50pm 7.5 4.2 0.3 60 3.0 S 7 11 4 6 - - 0.0
05/05:40pm 7.7 3.3 0.4 60 3.1 S 13 15 7 8 - - 0.0
05/05:30pm 8.0 3.2 0.4 58 3.2 S 15 15 8 8 - - 0.0
05/05:20pm 7.9 3.4 0.0 57 3.3 S 13 15 7 8 - - 0.0
05/05:10pm 8.0 3.9 -0.2 56 3.4 S 11 13 6 7 - - 0.0
05/05:00pm 8.0 3.9 -0.2 56 3.4 S 11 13 6 7 - - 0.0
05/04:50pm 8.0 3.9 -0.3 56 3.5 SSE 11 11 6 6 - - 0.0
05/04:40pm 8.2 3.4 -0.1 56 3.5 SSE 15 17 8 9 - - 0.0
05/04:30pm 8.6 3.1 0.5 57 3.5 SSE 19 20 10 11 - - 0.0
05/04:20pm 9.8 4.1 0.5 52 4.0 SSE 20 22 11 12 - - 0.0
05/04:10pm 10.3 4.8 0.3 50 4.3 SSE 19 20 10 11 - - 0.0
05/04:00pm 10.6 5.5 0.6 50 4.4 SE 17 20 9 11 - - 0.0
05/03:50pm 10.9 5.4 0.3 48 4.6 SE 19 19 10 10 - - 0.0
05/03:40pm 11.1 5.6 0.4 47 4.7 SE 19 20 10 11 - - 0.0
05/03:30pm 11.2 5.5 0.4 47 4.7 SE 20 24 11 13 - - 0.0
05/03:20pm 11.4 5.3 0.5 47 4.8 SE 22 24 12 13 - - 0.0
05/03:10pm 11.5 5.3 0.0 45 5.0 SE 22 26 12 14 - - 0.0
05/03:00pm 11.6 5.4 0.0 45 5.0 SE 22 24 12 13 - - 0.0
05/02:50pm 11.6 5.5 0.3 46 5.0 SSE 22 26 12 14 - - 0.0
05/02:40pm 11.6 5.1 0.2 45 5.0 SSE 24 28 13 15 - - 0.0
05/02:30pm 11.9 6.2 0.3 45 5.1 SSE 20 22 11 12 - - 0.0
05/02:20pm 11.9 6.3 -0.1 43 5.2 SSE 19 22 10 12 - - 0.0
05/02:10pm 11.9 5.7 -0.3 43 5.3 S 22 28 12 15 - - 0.0
05/02:00pm 11.9 4.7 -1.7 39 5.7 SSE 26 30 14 16 - - 0.0
05/01:50pm 11.8 6.1 -0.6 42 5.3 S 19 22 10 12 - - 0.0
05/01:40pm 11.7 6.0 -0.9 41 5.4 S 19 22 10 12 - - 0.0
05/01:30pm 11.5 4.8 -0.8 42 5.3 SSE 24 28 13 15 - - 0.0
05/01:20pm 11.4 6.0 -1.0 42 5.3 S 17 22 9 12 - - 0.0
05/01:10pm 11.1 5.1 -1.5 41 5.3 S 20 24 11 13 - - 0.0
05/01:00pm 10.9 4.2 -1.4 42 5.2 S 24 32 13 17 - - 0.0
05/12:50pm 10.7 3.3 -0.4 46 4.7 S 28 30 15 16 - - 0.0
05/12:40pm 10.5 2.7 -0.7 46 4.7 S 30 33 16 18 - - 0.0
05/12:30pm 10.5 3.1 -0.5 46 4.7 SSE 28 30 15 16 - - 0.0
05/12:20pm 10.4 2.6 -0.9 45 4.8 SSE 30 32 16 17 - - 0.0
05/12:10pm 10.1 2.7 -0.6 47 4.5 SSE 28 32 15 17 - - 0.0
05/12:00pm 10.1 2.3 -0.9 46 4.6 SSE 30 35 16 19 - - 0.0
05/11:50am 10.1 1.7 -1.2 45 4.7 SSE 33 35 18 19 - - 0.0
05/11:40am 10.1 2.2 -1.2 45 4.7 S 30 35 16 19 - - 0.0
05/11:30am 10.3 4.6 -0.7 46 4.7 S 19 30 10 16 - - 0.0
05/11:20am 10.4 5.7 -2.0 42 5.1 S 13 17 7 9 - - 0.0
05/11:10am 10.3 4.4 -2.1 42 5.1 S 19 28 10 15 - - 0.0
05/11:00am 10.3 6.9 -2.0 42 5.1 S 6 7 3 4 - - 0.0
05/10:50am 9.9 6.3 -2.3 42 5.0 S 7 11 4 6 - - 0.0
05/10:40am 9.6 5.6 -2.2 43 4.8 SE 9 11 5 6 - - 0.0
05/10:20am 9.0 5.0 -2.3 45 4.5 SSE 9 13 5 7 - - 0.0
05/10:10am 8.3 2.8 -2.0 48 4.1 SSE 17 22 9 12 - - 0.0
05/10:00am 8.1 1.7 -1.8 49 4.0 SSE 22 24 12 13 - - 0.0
05/09:50am 7.7 1.3 -1.5 52 3.7 SSE 22 26 12 14 - - 0.0
05/09:40am 7.3 0.1 -1.7 53 3.6 SSE 26 33 14 18 - - 0.0
05/09:30am 6.9 -1.1 -2.1 52 3.6 S 30 33 16 18 - - 0.0
05/09:20am 6.6 -1.7 -1.5 56 3.2 SSE 32 35 17 19 - - 0.0
05/09:10am 6.4 -2.1 -1.9 55 3.3 S 33 35 18 19 - - 0.0
05/09:00am 5.9 -2.5 -1.4 59 2.9 S 33 37 18 20 - - 0.0
05/08:50am 5.7 -2.8 -2.0 57 3.0 SSE 33 37 18 20 - - 0.0
05/08:40am 5.6 -3.7 -2.4 56 3.1 SSE 37 41 20 22 - - 0.0
05/08:30am 5.3 -4.1 -3.0 55 3.2 SSE 37 41 20 22 - - 0.0
05/08:20am 5.0 -3.0 -2.3 59 2.8 S 30 39 16 21 - - 0.0
05/08:10am 4.5 -2.6 -1.2 66 2.2 S 26 30 14 16 - - 0.0
05/08:00am 4.2 -3.7 -1.5 66 2.2 S 30 33 16 18 - - 0.0
05/07:50am 3.9 -4.0 -1.2 69 2.0 S 30 35 16 19 - - 0.0
05/07:40am 3.5 -4.4 -1.5 70 1.9 S 30 32 16 17 - - 0.0
05/07:30am 3.3 -3.4 -1.4 71 1.8 S 24 30 13 16 - - 0.0
05/07:20am 2.7 -0.8 -1.6 73 1.6 SSW 7 15 4 8 - - 0.0
05/07:10am 2.9 -0.7 -1.8 71 1.8 S 7 11 4 6 - - 0.0
05/07:00am 3.1 -0.3 -1.7 71 1.8 SSE 6 11 3 6 - - 0.0
05/06:50am 3.1 0.2 -1.4 72 1.7 S 4 6 2 3 - - 0.0
05/06:40am 3.4 -0.1 -1.3 71 1.8 SSW 7 15 4 8 - - 0.0
05/06:30am 3.8 -0.8 -1.2 70 2.0 S 13 22 7 12 - - 0.0
05/06:20am 3.7 -1.7 -1.2 70 1.9 S 17 20 9 11 - - 0.0
05/06:10am 3.6 -2.4 -1.2 71 1.9 S 20 24 11 13 - - 0.0
05/06:00am 3.6 -3.1 -1.0 72 1.8 S 24 28 13 15 - - 0.0
05/05:50am 3.6 -2.1 -1.0 72 1.8 S 19 26 10 14 - - 0.0
05/05:40am 3.6 -2.1 -0.9 72 1.8 S 19 20 10 11 - - 0.0
05/05:30am 3.8 -1.6 -1.3 69 2.0 S 17 20 9 11 - - 0.0
05/05:20am 4.2 -1.7 -0.8 70 2.0 S 20 26 11 14 - - 0.0
05/05:10am 4.1 -1.7 -1.7 66 2.2 S 19 30 10 16 - - 0.0
05/05:00am 4.0 -2.0 -1.6 67 2.2 S 20 24 11 13 - - 0.0
05/04:50am 4.2 -0.4 -1.2 68 2.1 S 13 19 7 10 - - 0.0
05/04:40am 4.6 -0.3 -0.7 68 2.1 S 15 24 8 13 - - 0.0
05/04:30am 4.7 -1.0 -0.9 67 2.2 S 19 24 10 13 - - 0.0
05/04:20am 4.9 -0.5 -1.1 65 2.4 S 17 24 9 13 - - 0.0
05/04:10am 4.9 0.3 -0.7 67 2.2 SSW 13 17 7 9 - - 0.0
05/04:00am 4.9 0.4 -0.4 68 2.1 SSW 13 17 7 9 - - 0.0
05/03:50am 4.8 0.3 -0.3 69 2.1 SSW 13 15 7 8 - - 0.0
05/03:40am 4.9 0.4 -0.3 69 2.1 SSW 13 19 7 10 - - 0.0
05/03:30am 5.0 -0.6 -0.1 69 2.1 SSW 19 22 10 12 - - 0.0
05/03:20am 4.9 0.0 -0.5 68 2.2 S 15 20 8 11 - - 0.0
05/03:10am 5.0 0.5 -0.4 68 2.2 SSW 13 19 7 10 - - 0.0
05/03:00am 4.9 0.7 -0.6 67 2.2 SSW 11 17 6 9 - - 0.0
05/02:50am 4.9 1.5 -0.4 68 2.1 SW 7 11 4 6 - - 0.0
05/02:40am 4.7 1.3 -0.4 69 2.1 S 7 9 4 5 - - 0.0
05/02:30am 4.8 1.1 -0.3 69 2.1 SSW 9 15 5 8 - - 0.0
05/02:20am 4.5 1.3 -0.5 70 2.0 SSE 6 11 3 6 - - 0.0
05/02:10am 4.6 1.4 -0.3 70 2.0 SE 6 11 3 6 - - 0.0
05/02:00am 4.7 1.5 -0.4 69 2.1 S 6 7 3 4 - - 0.0
05/01:50am 4.8 1.4 -0.4 69 2.1 S 7 15 4 8 - - 0.0
05/01:40am 4.9 0.8 -0.4 68 2.1 SSW 11 26 6 14 - - 0.0
05/01:30am 4.5 1.3 -0.4 70 2.0 SSW 6 11 3 6 - - 0.0
05/01:20am 4.6 1.4 -0.4 70 2.0 SSE 6 7 3 4 - - 0.0
05/01:10am 4.8 1.5 -0.1 70 2.0 S 7 9 4 5 - - 0.0
05/01:00am 5.2 0.7 -0.5 66 2.3 SW 13 20 7 11 - - 0.0
05/12:50am 5.0 0.9 -0.4 68 2.2 SSW 11 17 6 9 - - 0.0
05/12:40am 4.7 0.6 -0.2 70 2.0 SSW 11 17 6 9 - - 0.0
05/12:30am 4.9 0.4 -0.4 68 2.1 SW 13 20 7 11 - - 0.0
05/12:20am 4.9 1.1 -0.4 68 2.1 SSW 9 13 5 7 - - 0.0
05/12:10am 5.1 1.0 -0.3 68 2.2 SW 11 20 6 11 - - 0.0
05/12:00am 5.0 1.7 -0.2 69 2.1 SSW 7 11 4 6 - - 0.0
 
Date/Time
EST
Temp
°C
App
Temp
°C
Dew
Point
°C
Rel
Hum
%
Delta-T
°C
Wind Press
QNH
hPa
Press
MSL
hPa
Rain since
9am
mm
Dir  Spd
km/h
Gust
km/h
Spd
kts
Gust
kts
04/11:50pm 5.0 0.8 -0.6 67 2.3 WSW 11 17 6 9 - - 0.0
04/11:40pm 5.1 -0.2 -0.6 66 2.3 WSW 17 22 9 12 - - 0.0
04/11:30pm 5.0 0.1 -0.6 67 2.3 SW 15 26 8 14 - - 0.0
04/11:20pm 5.4 -0.8 -0.5 66 2.4 SW 22 44 12 24 - - 0.0
04/11:10pm 5.1 0.6 -0.1 69 2.1 SW 13 17 7 9 - - 0.0
04/11:00pm 5.0 -0.6 -0.2 69 2.1 WSW 19 22 10 12 - - 0.0
04/10:50pm 5.1 1.0 -0.2 68 2.2 SSW 11 20 6 11 - - 0.0
04/10:40pm 4.9 -0.3 0.0 70 2.0 WSW 17 20 9 11 - - 0.0
04/10:30pm 5.0 -0.6 -0.1 69 2.1 WSW 19 28 10 15 - - 0.0
04/10:20pm 5.0 -1.2 0.0 70 2.0 WSW 22 30 12 16 - - 0.0
04/10:10pm 4.9 -2.0 -0.1 70 2.0 WSW 26 32 14 17 - - 0.0
04/10:00pm 5.0 -1.2 -0.1 69 2.1 WSW 22 32 12 17 - - 0.0
04/09:50pm 4.8 -0.8 0.0 71 2.0 WSW 19 28 10 15 - - 0.0
04/09:40pm 4.9 0.1 0.0 70 2.0 SW 15 20 8 11 - - 0.0
04/09:30pm 4.9 -0.3 -0.1 70 2.0 SW 17 22 9 12 - - 0.0
04/09:20pm 4.6 -0.3 -0.3 70 2.0 SSW 15 28 8 15 - - 0.0
04/09:10pm 3.7 -0.1 -0.5 74 1.7 N 9 17 5 9 - - 0.0
04/09:00pm 3.5 -0.3 -0.4 75 1.6 ENE 9 11 5 6 - - 0.0
04/08:50pm 4.7 0.2 -0.2 70 2.0 S 13 22 7 12 - - 0.0
04/08:40pm 4.8 -0.5 -0.6 68 2.2 SSW 17 24 9 13 - - 0.0
04/08:30pm 4.7 -1.6 -0.7 68 2.2 SW 22 28 12 15 - - 0.0
04/08:20pm 4.4 -0.5 -0.7 69 2.0 SSW 15 20 8 11 - - 0.0
04/08:10pm 4.1 0.7 -0.8 70 1.9 S 7 9 4 5 - - 0.0
04/08:00pm 4.4 0.2 -0.6 70 2.0 SSW 11 17 6 9 - - 0.0
04/07:50pm 4.4 -0.2 -0.7 69 2.0 SW 13 19 7 10 - - 0.0
04/07:40pm 4.3 -0.6 -0.6 70 2.0 SW 15 20 8 11 - - 0.0
04/07:30pm 4.2 -1.7 -0.5 71 1.9 WSW 20 24 11 13 - - 0.0
04/07:20pm 4.2 -0.3 -0.4 72 1.8 SW 13 19 7 10 - - 0.0
04/07:10pm 4.2 0.4 -0.5 71 1.9 WSW 9 15 5 8 - - 0.0
04/07:00pm 4.4 0.3 -0.4 71 1.9 SSW 11 20 6 11 - - 0.0
04/06:50pm 4.3 -1.4 -0.4 71 1.9 WSW 19 28 10 15 - - 0.0
04/06:40pm 4.4 -1.8 -0.4 71 1.9 WSW 22 26 12 14 - - 0.0
04/06:30pm 4.7 -1.0 -0.5 69 2.1 SW 19 26 10 14 - - 0.0
04/06:20pm 4.6 -0.3 -0.6 69 2.1 SW 15 26 8 14 - - 0.0
04/06:10pm 4.3 0.5 -0.7 70 2.0 SSE 9 15 5 8 - - 0.0
04/06:00pm 4.8 0.6 -0.8 67 2.2 SW 11 17 6 9 - - 0.0
04/05:50pm 4.5 1.1 -0.7 69 2.1 S 7 11 4 6 - - 0.0
04/05:40pm 4.8 1.4 -0.7 67 2.2 SW 7 13 4 7 - - 0.0
04/05:30pm 4.9 0.7 -0.6 67 2.2 SW 11 15 6 8 - - 0.0
04/05:20pm 5.3 0.8 -0.6 66 2.4 SW 13 17 7 9 - - 0.0
04/05:10pm 5.5 1.0 -0.5 65 2.4 SW 13 15 7 8 - - 0.0
04/05:00pm 5.7 1.6 -0.4 65 2.5 SSW 11 15 6 8 - - 0.0
04/04:50pm 6.0 2.3 -0.3 64 2.6 SSW 9 15 5 8 - - 0.0
04/04:40pm 6.3 2.2 -0.5 62 2.8 SW 11 17 6 9 - - 0.0
04/04:30pm 6.8 2.7 -0.4 60 3.0 SW 11 17 6 9 - - 0.0
04/04:20pm 7.3 2.8 -0.2 59 3.1 WSW 13 20 7 11 - - 0.0
04/04:10pm 7.6 3.1 -0.3 57 3.3 SW 13 20 7 11 - - 0.0
04/04:00pm 8.0 3.8 -0.6 54 3.6 SW 11 17 6 9 - - 0.0
04/03:50pm 8.3 3.7 -0.8 52 3.8 SW 13 19 7 10 - - 0.0
04/03:40pm 8.4 3.8 -1.0 51 3.9 SSW 13 19 7 10 - - 0.0
04/03:30pm 8.4 3.0 -1.2 51 3.9 SSW 17 26 9 14 - - 0.0
04/03:20pm 8.3 2.6 -1.1 51 3.9 SSW 19 30 10 16 - - 0.0
04/03:10pm 8.2 1.0 -1.7 49 4.0 S 26 33 14 18 - - 0.0
04/03:00pm 8.3 2.9 -1.0 52 3.8 SSW 17 22 9 12 - - 0.0
04/02:50pm 7.9 0.7 -2.2 49 4.0 S 26 33 14 18 - - 0.0
04/02:40pm 7.9 0.7 -1.9 50 3.9 S 26 37 14 20 - - 0.0
04/02:30pm 7.6 0.4 -2.3 49 3.9 S 26 28 14 15 - - 0.0
04/02:20pm 7.7 1.2 -2.6 48 4.1 SSW 22 28 12 15 - - 0.0
04/02:10pm 7.5 0.6 -2.9 47 4.1 SSW 24 26 13 14 - - 0.0
04/02:00pm 7.8 1.2 -2.9 46 4.2 S 22 28 12 15 - - 0.0
04/01:50pm 7.5 1.3 -3.1 47 4.1 S 20 26 11 14 - - 0.0
04/01:40pm 7.3 0.3 -3.6 46 4.2 S 24 30 13 16 - - 0.0
04/01:30pm 7.1 0.1 -3.9 45 4.2 SSW 24 28 13 15 - - 0.0
04/01:20pm 7.2 0.1 -4.0 45 4.2 S 24 30 13 16 - - 0.0
04/01:10pm 7.3 0.9 -4.7 42 4.5 SSW 20 28 11 15 - - 0.0
04/01:00pm 7.2 0.9 -4.1 44 4.3 S 20 24 11 13 - - 0.0

Latest Capital City Observations: Canberra | Sydney | Melbourne | Brisbane | Adelaide | Perth | Hobart | Darwin

Other formats

Comma delimited format used in spreadsheet applications
http://www.bom.gov.au/fwo/IDN60903/IDN60903.99765.axf

JavaScript Object Notation format (JSON) in row-major order
http://www.bom.gov.au/fwo/IDN60903/IDN60903.99765.json

Data quality

Most of these data are generated automatically and are frequently updated. Quality checks on data are not normally performed. It is possible for incorrect values to appear. Refer to information at About Latest Weather Observations and please check the disclaimer before using these data.